Cove, Texas
Current Conditions -  °F | °C
As of 6:50 PM on Wednesday 26 Nov 2014 (Local Time) from KEFD Reporting Station
Clear Clear  
Wind Chill: 63°   Ceiling: Unl
Heat Index: 63°   Visibility: 10mi
Dew Point: 39°   Wind: 5mph
Humidity: 42%   Direction: 210°SSW
Pressure: 30.26"   Gusts: NA
Location:  29.7803°N, 94.894°W
Report Text: KEFD 270050Z 21004KT 10SM CLR 17/04 A3026
Loading
Personal Weather Stations






























Interactive Weather Map New forecast layout! Learn more

10-Day Weather Forecast

Advertisements
Track Severe Weather on mobile